createdAt,value
2018-05-04T00:00:23.933Z,15.10
2018-05-04T00:02:50.420Z,12.03
2018-05-04T00:05:16.916Z,15.03
2018-05-04T00:07:43.373Z,14.73
2018-05-04T00:10:10.605Z,13.10
2018-05-04T00:12:37.086Z,12.40
2018-05-04T00:15:04.319Z,14.60
2018-05-04T00:17:31.535Z,14.80
2018-05-04T00:19:58.008Z,12.57
2018-05-04T00:22:24.463Z,14.30
2018-05-04T00:24:51.700Z,12.60
2018-05-04T00:27:18.145Z,13.70
2018-05-04T00:29:45.374Z,15.80
2018-05-04T00:32:11.836Z,12.80
2018-05-04T00:34:38.290Z,11.90
2018-05-04T00:37:05.507Z,13.57
2018-05-04T00:39:31.969Z,14.10
2018-05-04T00:41:58.422Z,12.87
2018-05-04T00:44:25.640Z,14.20
2018-05-04T00:46:52.109Z,12.50
2018-05-04T00:49:19.297Z,12.83
2018-05-04T00:51:45.775Z,13.30
2018-05-04T00:54:21.262Z,15.77
2018-05-04T00:56:48.460Z,13.63
2018-05-04T00:59:14.910Z,14.33
2018-05-04T01:01:41.413Z,14.57
2018-05-04T01:04:07.876Z,15.20
2018-05-04T01:06:34.319Z,12.67
2018-05-04T01:09:00.809Z,14.30
2018-05-04T01:11:27.293Z,12.63
2018-05-04T01:13:53.770Z,12.40
2018-05-04T01:16:20.978Z,14.13
2018-05-04T01:18:47.449Z,15.47
2018-05-04T01:21:13.904Z,12.80
2018-05-04T01:23:41.101Z,14.50
2018-05-04T01:26:07.581Z,18.47
2018-05-04T01:28:34.075Z,14.20
2018-05-04T01:31:00.561Z,12.47
2018-05-04T01:33:27.022Z,15.20
2018-05-04T01:35:53.478Z,12.57
2018-05-04T01:38:19.956Z,15.93
2018-05-04T01:40:46.456Z,15.50
2018-05-04T01:43:12.894Z,16.27
2018-05-04T01:45:39.360Z,12.73
2018-05-04T01:48:05.901Z,16.20
2018-05-04T01:50:33.076Z,12.53
2018-05-04T01:52:59.544Z,12.77
2018-05-04T01:55:26.041Z,12.90
2018-05-04T01:57:52.504Z,15.90
2018-05-04T02:00:19.724Z,12.13
2018-05-04T02:02:46.200Z,16.93
2018-05-04T02:05:13.468Z,12.00
2018-05-04T02:07:40.722Z,16.10
2018-05-04T02:10:07.205Z,11.13
2018-05-04T02:12:33.663Z,12.57
2018-05-04T02:15:00.191Z,13.37
2018-05-04T02:17:26.653Z,12.47
2018-05-04T02:19:53.109Z,12.60
2018-05-04T02:22:20.341Z,14.97
2018-05-04T02:24:46.836Z,15.23
2018-05-04T02:27:13.312Z,14.57
2018-05-04T02:29:39.753Z,10.03
2018-05-04T02:32:06.209Z,11.80
2018-05-04T02:34:33.421Z,11.60
2018-05-04T02:36:59.869Z,13.20
2018-05-04T02:39:26.302Z,13.80
2018-05-04T02:41:52.777Z,23.87
2018-05-04T02:44:19.993Z,14.93
2018-05-04T02:46:46.475Z,12.73
2018-05-04T02:49:13.678Z,13.30
2018-05-04T02:51:40.132Z,14.13
2018-05-04T02:54:06.588Z,14.63
2018-05-04T02:56:33.073Z,14.93
2018-05-04T02:58:59.522Z,10.90
2018-05-04T03:01:25.988Z,9.67
2018-05-04T03:03:52.486Z,11.50
2018-05-04T03:06:18.941Z,10.70
2018-05-04T03:08:45.365Z,13.77
2018-05-04T03:11:11.842Z,10.50
2018-05-04T03:13:38.303Z,14.20
2018-05-04T03:16:05.490Z,17.50
2018-05-04T03:18:31.998Z,14.17
2018-05-04T03:20:59.202Z,11.07
2018-05-04T03:23:25.694Z,20.90
2018-05-04T03:25:52.925Z,12.80
2018-05-04T03:28:19.472Z,17.43
2018-05-04T03:30:46.022Z,10.50
2018-05-04T03:33:12.574Z,13.07
2018-05-04T03:35:39.793Z,11.63
2018-05-04T03:38:06.315Z,13.00
2018-05-04T03:40:34.417Z,11.70
2018-05-04T03:43:00.924Z,9.93
2018-05-04T03:45:27.426Z,13.63
2018-05-04T03:47:54.620Z,12.33
2018-05-04T03:50:21.089Z,12.40
2018-05-04T03:52:47.596Z,11.90
2018-05-04T03:55:14.055Z,13.37
2018-05-04T03:57:52.787Z,12.50
2018-05-04T04:00:31.518Z,12.30
2018-05-04T04:03:10.270Z,14.10
2018-05-04T04:05:37.467Z,11.90
2018-05-04T04:08:03.937Z,13.53
2018-05-04T04:10:30.502Z,12.80
2018-05-04T04:12:57.700Z,15.03
2018-05-04T04:15:24.152Z,14.37
2018-05-04T04:17:50.635Z,11.03
2018-05-04T04:20:17.833Z,13.23
2018-05-04T04:22:45.377Z,12.67
2018-05-04T04:25:11.919Z,16.53
2018-05-04T04:27:38.416Z,13.40
2018-05-04T04:30:04.885Z,15.77
2018-05-04T04:32:31.371Z,15.60
2018-05-04T04:34:57.892Z,17.47
2018-05-04T04:37:24.325Z,17.50
2018-05-04T04:39:50.765Z,13.60
2018-05-04T04:42:17.212Z,13.83
2018-05-04T04:44:43.660Z,11.50
2018-05-04T04:47:10.110Z,11.77
2018-05-04T04:49:36.554Z,12.67
2018-05-04T04:52:02.988Z,12.73
2018-05-04T04:54:29.506Z,14.17
2018-05-04T04:56:55.953Z,17.67
2018-05-04T04:59:22.431Z,15.27
2018-05-04T05:01:48.981Z,12.60
2018-05-04T05:04:16.201Z,16.80
2018-05-04T05:06:42.641Z,14.57
2018-05-04T05:09:09.095Z,16.03
2018-05-04T05:11:36.357Z,17.23
2018-05-04T05:14:03.619Z,18.00
2018-05-04T05:16:30.099Z,15.40
2018-05-04T05:18:56.584Z,15.70
2018-05-04T05:21:23.877Z,14.80
2018-05-04T05:23:50.361Z,17.97
2018-05-04T05:26:16.915Z,21.30
2018-05-04T05:28:44.128Z,15.03
2018-05-04T05:31:10.631Z,17.70
2018-05-04T05:33:37.167Z,17.92
2018-05-04T05:36:03.644Z,14.53
2018-05-04T05:38:30.127Z,15.93
2018-05-04T05:40:57.349Z,15.13
2018-05-04T05:43:23.804Z,12.97
2018-05-04T05:45:50.247Z,15.90
2018-05-04T05:48:16.780Z,14.90
2018-05-04T05:50:43.294Z,14.07
2018-05-04T05:53:09.732Z,14.30
2018-05-04T05:55:37.096Z,15.90
2018-05-04T05:58:03.548Z,13.67
2018-05-04T06:00:30.740Z,18.60
2018-05-04T06:02:57.993Z,15.37
2018-05-04T06:05:25.229Z,16.07
2018-05-04T06:07:52.416Z,13.87
2018-05-04T06:10:18.914Z,13.10
2018-05-04T06:12:45.438Z,17.93
2018-05-04T06:15:11.927Z,13.23
2018-05-04T06:17:38.445Z,16.13
2018-05-04T06:20:05.677Z,16.23
2018-05-04T06:22:32.203Z,16.90
2018-05-04T06:24:59.501Z,17.83
2018-05-04T06:27:25.985Z,14.43
2018-05-04T06:29:52.439Z,14.23
2018-05-04T06:32:18.905Z,14.50
2018-05-04T06:34:46.110Z,16.13
2018-05-04T06:37:12.545Z,17.93
2018-05-04T06:39:39.080Z,18.00
2018-05-04T06:42:05.504Z,15.50
2018-05-04T06:44:31.948Z,21.30
2018-05-04T06:46:58.396Z,17.53
2018-05-04T06:49:24.828Z,16.37
2018-05-04T06:51:51.298Z,16.00
2018-05-04T06:54:18.500Z,14.03
2018-05-04T06:56:44.941Z,17.83
2018-05-04T06:59:11.415Z,17.33
2018-05-04T07:01:37.860Z,20.80
2018-05-04T07:04:04.293Z,18.83
2018-05-04T07:06:30.735Z,16.80
2018-05-04T07:08:57.194Z,16.20
2018-05-04T07:11:23.642Z,13.00
2018-05-04T07:13:50.829Z,18.73
2018-05-04T07:16:17.269Z,23.00
2018-05-04T07:18:43.701Z,18.40
2018-05-04T07:21:10.159Z,23.03
2018-05-04T07:23:36.616Z,22.87
2018-05-04T07:26:03.106Z,18.03
2018-05-04T07:28:29.589Z,15.87
2018-05-04T07:30:56.050Z,18.90
2018-05-04T07:33:22.496Z,19.73
2018-05-04T07:35:49.676Z,22.10
2018-05-04T07:38:16.134Z,22.53
2018-05-04T07:40:42.610Z,21.20
2018-05-04T07:43:09.058Z,22.83
2018-05-04T07:45:35.532Z,22.70
2018-05-04T07:48:02.054Z,23.53
2018-05-04T07:50:29.246Z,28.97
2018-05-04T07:52:55.719Z,22.97
2018-05-04T07:55:22.193Z,22.43
2018-05-04T07:57:48.640Z,21.93
2018-05-04T08:00:15.093Z,29.20
2018-05-04T08:02:41.526Z,29.20
2018-05-04T08:05:08.589Z,26.87
2018-05-04T08:07:35.067Z,24.70
2018-05-04T08:10:01.494Z,23.83
2018-05-04T08:12:27.977Z,29.30
2018-05-04T08:14:54.453Z,23.53
2018-05-04T08:17:20.908Z,30.07
2018-05-04T08:19:47.382Z,23.30
2018-05-04T08:22:13.873Z,33.53
2018-05-04T08:24:40.403Z,48.70
2018-05-04T08:27:06.870Z,36.17
2018-05-04T08:29:33.374Z,29.37
2018-05-04T08:31:59.829Z,54.50
2018-05-04T08:34:26.284Z,39.07
2018-05-04T08:36:52.803Z,32.43
2018-05-04T08:39:19.234Z,33.83
2018-05-04T08:41:45.727Z,26.83
2018-05-04T08:44:12.932Z,27.40
2018-05-04T08:46:39.447Z,25.53
2018-05-04T08:49:05.944Z,26.23
2018-05-04T08:51:33.189Z,27.77
2018-05-04T08:53:59.633Z,21.93
2018-05-04T08:56:26.873Z,21.33
2018-05-04T08:58:53.367Z,18.63
2018-05-04T09:01:19.815Z,19.93
2018-05-04T09:03:46.246Z,18.87
2018-05-04T09:06:12.704Z,21.40
2018-05-04T09:08:39.164Z,18.33
2018-05-04T09:11:05.611Z,20.80
2018-05-04T09:13:32.884Z,19.33
2018-05-04T09:16:00.076Z,21.90
2018-05-04T09:18:26.523Z,18.77
2018-05-04T09:20:53.089Z,20.80
2018-05-04T09:23:19.570Z,31.53
2018-05-04T09:25:46.032Z,22.20
2018-05-04T09:28:12.478Z,19.63
2018-05-04T09:30:39.041Z,24.17
2018-05-04T09:33:12.541Z,21.10
2018-05-04T09:35:38.965Z,22.13
2018-05-04T09:38:05.448Z,25.70
2018-05-04T09:40:32.672Z,22.77
2018-05-04T09:42:59.153Z,18.70
2018-05-04T09:45:25.619Z,20.00
2018-05-04T09:47:52.109Z,25.03
2018-05-04T09:50:19.359Z,17.43
2018-05-04T09:52:45.798Z,19.73
2018-05-04T09:55:12.997Z,18.60
2018-05-04T09:57:39.513Z,17.97
2018-05-04T10:00:06.708Z,26.30
2018-05-04T10:02:33.170Z,21.20
2018-05-04T10:04:59.599Z,19.80
2018-05-04T10:07:26.039Z,23.83
2018-05-04T10:09:52.500Z,18.87
2018-05-04T10:12:19.000Z,22.63
2018-05-04T10:14:45.431Z,21.53
2018-05-04T10:17:11.899Z,19.43
2018-05-04T10:19:38.376Z,21.47
2018-05-04T10:22:04.842Z,19.53
2018-05-04T10:24:31.287Z,20.07
2018-05-04T10:26:57.748Z,19.60
2018-05-04T10:29:24.200Z,18.70
2018-05-04T10:31:50.684Z,18.33
2018-05-04T10:34:17.196Z,16.93
2018-05-04T10:36:43.718Z,18.47
2018-05-04T10:39:10.159Z,15.20
2018-05-04T10:41:37.508Z,14.90
2018-05-04T10:44:04.048Z,14.83
2018-05-04T10:46:30.484Z,14.33
2018-05-04T10:48:56.954Z,17.73
2018-05-04T10:51:23.424Z,14.83
2018-05-04T10:53:49.876Z,13.67
2018-05-04T10:56:16.379Z,16.73
2018-05-04T10:58:42.902Z,17.10
2018-05-04T11:01:10.114Z,14.50
2018-05-04T11:03:36.569Z,15.63
2018-05-04T11:06:03.089Z,15.40
2018-05-04T11:08:29.613Z,16.30
2018-05-04T11:10:56.126Z,21.23
2018-05-04T11:13:22.653Z,13.20
2018-05-04T11:15:49.170Z,16.20
2018-05-04T11:18:16.405Z,17.77
2018-05-04T11:20:42.910Z,13.60
2018-05-04T11:23:09.435Z,12.93
2018-05-04T11:25:35.893Z,12.77
2018-05-04T11:28:02.380Z,12.53
2018-05-04T11:30:28.918Z,13.53
2018-05-04T11:32:55.471Z,12.97
2018-05-04T11:35:22.710Z,16.33
2018-05-04T11:37:49.186Z,11.43
2018-05-04T11:40:15.655Z,11.33
2018-05-04T11:42:42.152Z,11.93
2018-05-04T11:45:09.445Z,11.43
2018-05-04T11:47:35.958Z,14.00
2018-05-04T11:50:02.521Z,12.43
2018-05-04T11:52:29.003Z,13.67
2018-05-04T11:54:55.517Z,12.70
2018-05-04T11:57:22.008Z,10.40
2018-05-04T11:59:48.494Z,10.97
2018-05-04T12:02:15.009Z,10.53
2018-05-04T12:04:41.536Z,11.93
2018-05-04T12:07:07.995Z,11.50
2018-05-04T12:09:34.472Z,11.73
2018-05-04T12:12:01.656Z,12.70
2018-05-04T12:14:28.184Z,11.53
2018-05-04T12:16:55.433Z,11.20
2018-05-04T12:19:22.669Z,10.37
2018-05-04T12:21:49.153Z,10.60
2018-05-04T12:24:15.694Z,13.80
2018-05-04T12:26:42.199Z,10.00
2018-05-04T12:29:09.460Z,12.07
2018-05-04T12:31:36.799Z,10.80
2018-05-04T12:34:04.045Z,16.03
2018-05-04T12:36:30.566Z,15.60
2018-05-04T12:38:57.074Z,13.13
2018-05-04T12:41:23.537Z,10.00
2018-05-04T12:43:50.079Z,10.37
2018-05-04T12:46:16.554Z,11.40
2018-05-04T12:48:43.092Z,11.03
2018-05-04T12:51:09.571Z,10.07
2018-05-04T12:53:36.189Z,12.40
2018-05-04T12:56:02.658Z,9.73
2018-05-04T12:58:29.102Z,14.87
2018-05-04T13:00:55.625Z,10.33
2018-05-04T13:03:22.153Z,10.80
2018-05-04T13:05:49.343Z,10.03
2018-05-04T13:08:16.259Z,14.20
2018-05-04T13:10:43.460Z,11.57
2018-05-04T13:13:10.008Z,16.23
2018-05-04T13:15:36.483Z,15.13
2018-05-04T13:18:03.716Z,13.13
2018-05-04T13:20:30.214Z,12.77
2018-05-04T13:22:56.713Z,10.50
2018-05-04T13:25:23.960Z,11.10
2018-05-04T13:27:51.168Z,13.10
2018-05-04T13:30:17.673Z,11.67
2018-05-04T13:32:44.931Z,14.63
2018-05-04T13:35:12.149Z,11.70
2018-05-04T13:37:38.611Z,12.90
2018-05-04T13:40:05.816Z,14.00
2018-05-04T13:42:32.325Z,15.80
2018-05-04T13:44:58.809Z,13.80
2018-05-04T13:47:25.313Z,13.70
2018-05-04T13:49:51.811Z,12.67
2018-05-04T13:52:18.286Z,16.83
2018-05-04T13:54:44.732Z,13.03
2018-05-04T13:57:11.975Z,13.00
2018-05-04T13:59:38.435Z,13.20
2018-05-04T14:02:05.001Z,13.03
2018-05-04T14:04:31.461Z,11.93
2018-05-04T14:06:58.000Z,14.43
2018-05-04T14:09:24.449Z,11.50
2018-05-04T14:11:51.675Z,12.17
2018-05-04T14:14:18.117Z,14.57
2018-05-04T14:16:45.336Z,14.87
2018-05-04T14:19:11.780Z,11.13
2018-05-04T14:21:38.320Z,12.80
2018-05-04T14:24:04.844Z,11.93
2018-05-04T14:26:31.340Z,16.37
2018-05-04T14:28:58.578Z,9.93
2018-05-04T14:31:25.102Z,15.50
2018-05-04T14:33:51.579Z,9.47
2018-05-04T14:36:18.812Z,9.40
2018-05-04T14:38:46.000Z,10.27
2018-05-04T14:41:12.503Z,15.57
2018-05-04T14:43:38.977Z,13.40
2018-05-04T14:46:06.192Z,17.23
2018-05-04T14:48:32.719Z,12.43
2018-05-04T14:50:59.203Z,14.47
2018-05-04T14:53:26.429Z,13.40
2018-05-04T14:55:52.948Z,11.93
2018-05-04T14:58:19.409Z,10.50
2018-05-04T15:00:45.907Z,11.60
2018-05-04T15:03:12.407Z,11.70
2018-05-04T15:05:39.629Z,16.20
2018-05-04T15:08:06.109Z,15.53
2018-05-04T15:10:33.329Z,11.03
2018-05-04T15:12:59.837Z,16.63
2018-05-04T15:15:26.284Z,11.17
2018-05-04T15:17:52.766Z,12.30
2018-05-04T15:20:19.269Z,13.77
2018-05-04T15:22:45.736Z,11.83
2018-05-04T15:25:12.225Z,16.90
2018-05-04T15:27:38.726Z,14.03
2018-05-04T15:30:05.929Z,11.73
2018-05-04T15:32:32.418Z,31.07
2018-05-04T15:34:59.623Z,13.97
2018-05-04T15:37:26.125Z,12.33
2018-05-04T15:39:53.395Z,12.60
2018-05-04T15:42:20.627Z,11.93
2018-05-04T15:44:47.161Z,11.70
2018-05-04T15:47:13.706Z,12.17
2018-05-04T15:49:40.881Z,14.57
2018-05-04T15:52:07.362Z,12.07
2018-05-04T15:54:33.812Z,13.23
2018-05-04T15:57:00.273Z,10.37
2018-05-04T15:59:27.507Z,12.10
2018-05-04T16:01:53.980Z,13.30
2018-05-04T16:04:21.215Z,13.33
2018-05-04T16:06:47.775Z,11.87
2018-05-04T16:09:14.974Z,12.70
2018-05-04T16:11:42.207Z,14.50
2018-05-04T16:14:08.685Z,15.67
2018-05-04T16:16:35.159Z,11.80
2018-05-04T16:19:02.424Z,10.83
2018-05-04T16:21:29.645Z,15.03
2018-05-04T16:23:56.149Z,13.03
2018-05-04T16:26:22.617Z,13.53
2018-05-04T16:28:49.157Z,12.00
2018-05-04T16:31:15.678Z,13.40
2018-05-04T16:33:42.180Z,13.07
2018-05-04T16:36:08.645Z,11.40
2018-05-04T16:38:35.117Z,14.70
2018-05-04T16:41:01.600Z,11.43
2018-05-04T16:43:28.085Z,17.27
2018-05-04T16:45:54.539Z,11.97
2018-05-04T16:48:26.984Z,13.60
2018-05-04T16:50:53.452Z,11.47
2018-05-04T16:53:19.926Z,11.63
2018-05-04T16:55:46.459Z,16.90
2018-05-04T16:58:12.979Z,11.33
2018-05-04T17:00:40.225Z,12.00
2018-05-04T17:03:06.757Z,12.70
2018-05-04T17:05:33.296Z,13.30
2018-05-04T17:07:59.863Z,12.90
2018-05-04T17:10:27.089Z,11.67
2018-05-04T17:12:53.607Z,12.77
2018-05-04T17:15:20.154Z,12.43
2018-05-04T17:17:46.653Z,12.37
2018-05-04T17:20:13.138Z,12.83
2018-05-04T17:22:39.740Z,12.37
2018-05-04T17:25:06.283Z,14.33
2018-05-04T17:27:32.754Z,14.57
2018-05-04T17:29:59.304Z,16.13
2018-05-04T17:32:25.765Z,14.50
2018-05-04T17:34:52.993Z,18.43
2018-05-04T17:37:19.547Z,21.13
2018-05-04T17:39:46.068Z,16.50
2018-05-04T17:42:12.563Z,15.30
2018-05-04T17:44:39.025Z,16.93
2018-05-04T17:47:05.664Z,18.07
2018-05-04T17:49:32.183Z,15.60
2018-05-04T17:51:58.662Z,17.70
2018-05-04T17:54:25.145Z,14.40
2018-05-04T17:56:52.433Z,16.83
2018-05-04T17:59:18.884Z,18.73
2018-05-04T18:01:45.414Z,18.33
2018-05-04T18:04:11.871Z,15.60
2018-05-04T18:06:38.391Z,16.63
2018-05-04T18:09:04.942Z,14.87
2018-05-04T18:11:31.432Z,19.67
2018-05-04T18:13:58.657Z,16.40
2018-05-04T18:16:25.105Z,14.57
2018-05-04T18:18:51.585Z,15.27
2018-05-04T18:21:18.099Z,21.50
2018-05-04T18:23:45.404Z,16.70
2018-05-04T18:26:11.828Z,16.17
2018-05-04T18:28:39.045Z,17.57
2018-05-04T18:31:06.351Z,19.67
2018-05-04T18:33:32.884Z,16.97
2018-05-04T18:35:59.425Z,21.67
2018-05-04T18:38:25.986Z,22.50
2018-05-04T18:40:52.464Z,25.60
2018-05-04T18:43:19.680Z,30.87
2018-05-04T18:45:46.223Z,24.00
2018-05-04T18:48:12.768Z,22.57
2018-05-04T18:50:39.244Z,26.77
2018-05-04T18:53:05.723Z,24.07
2018-05-04T18:55:32.241Z,23.33
2018-05-04T18:57:58.713Z,24.83
2018-05-04T19:00:25.196Z,25.40
2018-05-04T19:02:58.427Z,25.00
2018-05-04T19:05:24.940Z,29.40
2018-05-04T19:07:51.419Z,21.73
2018-05-04T19:10:18.027Z,25.20
2018-05-04T19:12:44.504Z,23.77
2018-05-04T19:15:11.004Z,26.27
2018-05-04T19:17:37.523Z,28.43
2018-05-04T19:20:04.742Z,28.77
2018-05-04T19:22:31.245Z,30.77
2018-05-04T19:24:57.795Z,29.63
2018-05-04T19:27:24.304Z,26.43
2018-05-04T19:29:50.820Z,27.97
2018-05-04T19:32:18.093Z,24.73
2018-05-04T19:34:45.401Z,24.47
2018-05-04T19:37:12.636Z,26.17
2018-05-04T19:39:39.198Z,23.40
2018-05-04T19:42:05.710Z,22.40
2018-05-04T19:44:32.198Z,26.07
2018-05-04T19:46:58.675Z,23.83
2018-05-04T19:49:25.179Z,27.87
2018-05-04T19:51:52.426Z,29.40
2018-05-04T19:54:18.931Z,28.90
2018-05-04T19:56:45.404Z,33.10
2018-05-04T19:59:11.935Z,27.50
2018-05-04T20:01:38.471Z,27.53
2018-05-04T20:04:05.070Z,35.93
2018-05-04T20:06:31.590Z,27.27
2018-05-04T20:08:58.810Z,28.13
2018-05-04T20:11:25.427Z,28.53
2018-05-04T20:13:51.982Z,35.13
2018-05-04T20:16:18.516Z,26.70
2018-05-04T20:18:45.009Z,26.53
2018-05-04T20:21:12.377Z,26.77
2018-05-04T20:23:38.996Z,26.43
2018-05-04T20:26:06.221Z,24.47
2018-05-04T20:28:32.721Z,23.87
2018-05-04T20:30:59.284Z,27.83
2018-05-04T20:33:25.740Z,22.73
2018-05-04T20:35:52.325Z,22.33
2018-05-04T20:38:18.830Z,23.80
2018-05-04T20:40:45.417Z,22.87
2018-05-04T20:43:11.977Z,29.10
2018-05-04T20:45:38.473Z,24.60
2018-05-04T20:48:05.737Z,23.40
2018-05-04T20:50:32.984Z,21.47
2018-05-04T20:53:00.577Z,21.73
2018-05-04T20:55:27.095Z,23.37
2018-05-04T20:57:55.239Z,25.73
2018-05-04T21:00:22.895Z,16.83
2018-05-04T21:02:49.425Z,17.00
2018-05-04T21:05:16.681Z,15.20
2018-05-04T21:07:43.143Z,13.57
2018-05-04T21:10:09.624Z,16.20
2018-05-04T21:12:36.092Z,9.87
2018-05-04T21:15:02.628Z,8.60
2018-05-04T21:17:29.127Z,9.73
2018-05-04T21:19:56.434Z,11.10
2018-05-04T21:22:23.588Z,9.30
2018-05-04T21:24:50.196Z,10.83
2018-05-04T21:27:16.688Z,7.27
2018-05-04T21:29:43.222Z,5.33
2018-05-04T21:32:09.733Z,5.87
2018-05-04T21:34:36.227Z,5.60
2018-05-04T21:37:03.465Z,7.17
2018-05-04T21:39:29.983Z,9.07
2018-05-04T21:41:56.480Z,6.53
2018-05-04T21:44:22.991Z,7.23
2018-05-04T21:46:50.226Z,6.77
2018-05-04T21:49:16.728Z,7.70
2018-05-04T21:51:43.292Z,6.40
2018-05-04T21:54:09.776Z,5.57
2018-05-04T21:56:36.978Z,9.37
2018-05-04T21:59:03.530Z,10.77
2018-05-04T22:01:29.979Z,7.27
2018-05-04T22:03:56.470Z,14.63
2018-05-04T22:06:23.022Z,10.53
2018-05-04T22:08:49.482Z,8.60
2018-05-04T22:11:15.945Z,12.47
2018-05-04T22:13:42.422Z,10.60
2018-05-04T22:16:08.900Z,11.00
2018-05-04T22:18:35.382Z,8.03
2018-05-04T22:21:02.674Z,10.40
2018-05-04T22:23:29.116Z,14.20
2018-05-04T22:25:55.601Z,9.30
2018-05-04T22:28:22.816Z,16.30
2018-05-04T22:30:49.265Z,12.23
2018-05-04T22:33:15.736Z,17.20
2018-05-04T22:35:42.986Z,12.47
2018-05-04T22:38:10.196Z,9.10
2018-05-04T22:40:36.710Z,11.30
2018-05-04T22:43:03.238Z,13.20
2018-05-04T22:45:29.822Z,11.60
2018-05-04T22:47:56.308Z,12.13
2018-05-04T22:50:23.578Z,14.47
2018-05-04T22:52:50.066Z,11.60
2018-05-04T22:55:16.548Z,12.63
2018-05-04T22:57:43.765Z,11.37
2018-05-04T23:00:10.298Z,16.87
2018-05-04T23:02:36.811Z,17.77
2018-05-04T23:05:03.365Z,16.27
2018-05-04T23:07:29.829Z,16.10
2018-05-04T23:09:56.334Z,16.80
2018-05-04T23:12:22.856Z,15.00
2018-05-04T23:14:49.340Z,18.20
2018-05-04T23:17:15.833Z,13.90
2018-05-04T23:19:42.318Z,19.03
2018-05-04T23:22:08.828Z,14.77
2018-05-04T23:24:35.380Z,11.70
2018-05-04T23:27:02.617Z,19.53
2018-05-04T23:29:29.141Z,14.70
2018-05-04T23:31:55.636Z,10.97
2018-05-04T23:34:22.195Z,11.70
2018-05-04T23:36:48.635Z,11.10
2018-05-04T23:39:15.869Z,12.47
2018-05-04T23:41:42.325Z,13.37
2018-05-04T23:44:09.522Z,12.37
2018-05-04T23:46:36.042Z,11.73
2018-05-04T23:49:02.512Z,11.63
2018-05-04T23:51:29.017Z,16.10
2018-05-04T23:53:55.555Z,11.87
2018-05-04T23:56:22.043Z,11.80
2018-05-04T23:58:48.588Z,19.00
